Time;durP1;ratioP1;P1;durP2;ratioP2;P2;SDS_P1;SDS_P2;PMS_P1;PMS_P2;Temp;Humidity;BMP_temperature;BMP_pressure;BME280_temperature;BME280_humidity;BME280_pressure;Samples;Min_cycle;Max_cycle;Signal;HPM_P1;HPM_P2
2024/01/02 00:04:37;;;;;;;21.57;6.00;;;;;;;4.89;100.00;99778.18;4978051;56;1136826;-81
2024/01/02 00:09:43;;;;;;;10.33;5.60;;;;;;;4.88;100.00;99777.37;4946471;56;1136895;-79
2024/01/02 00:14:49;;;;;;;10.30;4.93;;;;;;;4.88;100.00;99779.98;4964820;57;1136671;-79
2024/01/02 00:19:54;;;;;;;14.50;5.93;;;;;;;4.89;100.00;99777.70;5002945;57;1136781;-80
2024/01/02 00:25:00;;;;;;;12.30;5.30;;;;;;;4.92;100.00;99772.74;4965906;56;1136681;-82
2024/01/02 00:30:07;;;;;;;10.40;4.70;;;;;;;4.92;100.00;99772.74;4945433;57;1138613;-81
2024/01/02 00:35:12;;;;;;;15.45;5.03;;;;;;;4.91;100.00;99774.98;4938601;57;1236514;-77
2024/01/02 00:40:18;;;;;;;13.80;4.70;;;;;;;4.91;100.00;99763.20;4985597;56;1235997;-79
2024/01/02 00:45:24;;;;;;;9.65;4.22;;;;;;;4.91;100.00;99771.06;4973958;56;1177691;-78
2024/01/02 00:50:31;;;;;;;12.10;3.67;;;;;;;4.90;100.00;99772.00;4990279;56;1134623;-79
2024/01/02 00:55:37;;;;;;;9.80;4.03;;;;;;;4.88;100.00;99781.77;4975615;56;1136933;-78
2024/01/02 01:00:42;;;;;;;8.20;3.60;;;;;;;4.86;100.00;99772.70;4974004;56;1134863;-78
2024/01/02 01:05:48;;;;;;;13.67;4.13;;;;;;;4.87;100.00;99773.54;4957291;56;1136759;-78
2024/01/02 01:10:53;;;;;;;9.27;4.03;;;;;;;4.85;100.00;99774.11;4987333;57;1136676;-80
2024/01/02 01:15:59;;;;;;;9.77;3.63;;;;;;;4.81;100.00;99775.23;4937101;55;1134640;-80
2024/01/02 01:21:05;;;;;;;19.82;5.75;;;;;;;4.79;100.00;99777.11;4957801;57;1135059;-79
2024/01/02 01:26:10;;;;;;;5.63;3.60;;;;;;;4.79;100.00;99776.65;4971977;57;1175289;-79
2024/01/02 01:31:16;;;;;;;17.15;4.50;;;;;;;4.79;100.00;99774.49;4943541;57;1205464;-78
2024/01/02 01:36:22;;;;;;;9.50;3.57;;;;;;;4.82;100.00;99780.84;4898418;58;1139793;-78
2024/01/02 01:41:27;;;;;;;11.30;3.33;;;;;;;4.82;100.00;99785.63;4919205;56;1134644;-79
2024/01/02 01:46:37;;;;;;;14.87;3.97;;;;;;;4.83;100.00;99780.75;4949681;56;1136908;-78
2024/01/02 01:51:44;;;;;;;9.10;3.20;;;;;;;4.85;100.00;99778.88;4964205;56;1136478;-78
2024/01/02 01:56:51;;;;;;;9.20;3.03;;;;;;;4.88;100.00;99783.08;4972915;56;1134532;-79
2024/01/02 02:01:57;;;;;;;15.87;4.57;;;;;;;4.87;100.00;99777.00;4936932;57;1134606;-79
2024/01/02 02:07:03;;;;;;;9.93;2.90;;;;;;;4.86;100.00;99775.31;4958212;55;1136571;-79
2024/01/02 02:12:11;;;;;;;7.74;3.24;;;;;;;4.85;100.00;99776.25;4981068;57;1134714;-79
2024/01/02 02:17:22;;;;;;;9.70;3.60;;;;;;;4.86;100.00;99778.41;4939908;57;1135349;-78
2024/01/02 02:22:34;;;;;;;4.42;2.98;;;;;;;4.86;100.00;99773.17;4954841;57;1230198;-80
2024/01/02 02:27:40;;;;;;;9.73;3.27;;;;;;;4.85;100.00;99780.19;4993388;57;1134683;-78
2024/01/02 02:32:46;;;;;;;9.03;3.73;;;;;;;4.85;100.00;99778.03;4974383;57;1169188;-78
2024/01/02 02:37:59;;;;;;;10.87;3.03;;;;;;;4.84;100.00;99777.66;4927288;57;1237714;-79
2024/01/02 02:43:00;;;;;;;8.43;3.00;;;;;;;4.82;100.00;99786.93;4977861;56;1240231;-79
2024/01/02 02:48:07;;;;;;;6.53;2.50;;;;;;;4.81;100.00;99787.87;4941287;56;1192077;-78
2024/01/02 02:53:12;;;;;;;4.57;2.60;;;;;;;4.81;100.00;99790.95;4934621;57;1215191;-77
2024/01/02 02:58:19;;;;;;;13.30;3.17;;;;;;;4.80;100.00;99786.66;4966077;56;1243218;-78
2024/01/02 03:03:25;;;;;;;10.30;3.42;;;;;;;4.83;100.00;99784.69;4992150;57;1225399;-79
2024/01/02 03:08:30;;;;;;;6.03;2.50;;;;;;;4.85;100.00;99772.80;4975968;57;1252803;-79
2024/01/02 03:13:36;;;;;;;5.53;2.70;;;;;;;4.88;100.00;99776.06;4966367;56;1245835;-78
2024/01/02 03:18:42;;;;;;;8.60;3.67;;;;;;;4.88;100.00;99778.68;4971014;56;1134605;-80
2024/01/02 03:23:47;;;;;;;5.97;3.60;;;;;;;4.88;100.00;99781.77;4922923;57;1134559;-79
2024/01/02 03:28:53;;;;;;;5.50;3.43;;;;;;;4.90;100.00;99778.55;4901425;58;1134878;-79
2024/01/02 03:33:58;;;;;;;5.93;2.67;;;;;;;4.93;100.00;99778.35;4895504;58;1136521;-79
2024/01/02 03:39:05;;;;;;;6.33;2.90;;;;;;;4.92;100.00;99784.06;4884245;56;1134959;-78
2024/01/02 03:44:11;;;;;;;6.30;3.17;;;;;;;4.90;100.00;99778.08;4962016;56;1135055;-78
2024/01/02 03:49:17;;;;;;;8.57;3.10;;;;;;;4.90;100.00;99773.31;4924705;56;1134609;-78
2024/01/02 03:54:22;;;;;;;4.70;2.50;;;;;;;4.91;100.00;99774.98;4992929;56;1134764;-79
2024/01/02 03:59:28;;;;;;;4.63;2.77;;;;;;;4.91;100.00;99772.37;4935162;55;1134690;-79
2024/01/02 04:04:33;;;;;;;3.37;2.33;;;;;;;4.91;100.00;99772.37;4980776;55;1230650;-77
2024/01/02 04:09:39;;;;;;;9.83;2.97;;;;;;;4.90;100.00;99762.36;4983155;57;1134521;-80
2024/01/02 04:14:45;;;;;;;7.60;3.27;;;;;;;4.91;100.00;99767.13;4971722;56;1216682;-77
2024/01/02 04:19:50;;;;;;;7.33;2.77;;;;;;;4.91;100.00;99761.89;4934927;57;1134664;-78
2024/01/02 04:24:56;;;;;;;7.93;3.03;;;;;;;4.92;100.00;99765.72;4996799;56;1134683;-78
2024/01/02 04:30:02;;;;;;;5.63;2.87;;;;;;;4.89;100.00;99759.84;4954868;57;1134785;-78
2024/01/02 04:35:08;;;;;;;5.30;3.00;;;;;;;4.88;100.00;99762.12;4948194;56;1212642;-80
2024/01/02 04:40:14;;;;;;;6.20;3.00;;;;;;;4.89;100.00;99758.53;4909264;56;1162509;-78
2024/01/02 04:45:20;;;;;;;6.40;2.75;;;;;;;4.88;100.00;99745.09;4985125;56;1134417;-78
2024/01/02 04:50:25;;;;;;;6.20;3.05;;;;;;;4.88;100.00;99752.95;4954224;57;1134621;-80
2024/01/02 04:55:31;;;;;;;9.60;3.33;;;;;;;4.88;100.00;99758.19;4955126;57;1134424;-79
2024/01/02 05:00:36;;;;;;;5.27;2.30;;;;;;;4.87;100.00;99749.95;4973765;57;1134637;-80
2024/01/02 05:05:42;;;;;;;9.33;3.30;;;;;;;4.88;100.00;99752.48;4964854;57;1134682;-78
2024/01/02 05:10:47;;;;;;;8.43;3.10;;;;;;;4.87;100.00;99738.17;4978856;57;1134311;-80
2024/01/02 05:15:53;;;;;;;10.72;4.55;;;;;;;4.89;100.00;99736.26;4936466;57;1134937;-80
2024/01/02 05:20:58;;;;;;;4.40;2.60;;;;;;;4.88;100.00;99736.76;4859096;58;1136435;-79
2024/01/02 05:26:04;;;;;;;4.07;2.73;;;;;;;4.87;100.00;99737.70;4916660;56;1134544;-81
2024/01/02 05:31:11;;;;;;;7.80;3.02;;;;;;;4.88;100.00;99745.93;4914505;57;1134747;-80
2024/01/02 05:36:17;;;;;;;8.40;2.97;;;;;;;4.87;100.00;99736.39;4874954;58;1144441;-82
2024/01/02 05:41:22;;;;;;;5.27;2.47;;;;;;;4.87;100.00;99735.55;4919201;56;1136775;-79
2024/01/02 05:46:28;;;;;;;4.72;3.27;;;;;;;4.87;100.00;99732.46;4982746;56;1136565;-81
2024/01/02 05:51:33;;;;;;;8.10;2.73;;;;;;;4.86;100.00;99741.26;4952384;57;1136766;-81
2024/01/02 05:56:39;;;;;;;9.07;2.97;;;;;;;4.84;100.00;99740.52;4903700;57;1136782;-81
2024/01/02 06:01:44;;;;;;;7.50;2.97;;;;;;;4.80;100.00;99735.58;4947368;57;1134463;-73
2024/01/02 06:06:50;;;;;;;6.10;3.47;;;;;;;4.83;100.00;99735.38;4983664;57;1136849;-75
2024/01/02 06:11:55;;;;;;;9.47;4.43;;;;;;;4.84;100.00;99723.48;4935304;57;1136654;-75
2024/01/02 06:17:02;;;;;;;9.93;4.17;;;;;;;4.89;100.00;99725.78;4931380;57;1136487;-75
2024/01/02 06:22:07;;;;;;;13.77;3.33;;;;;;;4.96;100.00;99728.38;5000879;56;1136700;-73
2024/01/02 06:27:14;;;;;;;8.42;3.40;;;;;;;5.03;100.00;99725.72;5059848;56;1138783;-76
2024/01/02 06:32:20;;;;;;;9.15;4.20;;;;;;;5.03;100.00;99732.27;4908477;56;1145488;-73
2024/01/02 06:37:25;;;;;;;8.10;3.25;;;;;;;5.01;100.00;99722.36;4940209;57;1136745;-75
2024/01/02 06:42:31;;;;;;;9.23;3.70;;;;;;;5.02;100.00;99721.42;4946141;57;1136536;-72
2024/01/02 06:47:37;;;;;;;8.13;3.20;;;;;;;5.00;100.00;99719.37;4946220;57;1136549;-74
2024/01/02 06:52:42;;;;;;;8.47;3.17;;;;;;;5.00;100.00;99720.68;4950231;57;1137292;-74
2024/01/02 06:57:48;;;;;;;10.70;3.63;;;;;;;5.02;100.00;99733.69;4944519;57;1136740;-72
2024/01/02 07:02:53;;;;;;;11.40;3.53;;;;;;;4.97;100.00;99733.98;4868045;57;1138754;-73
2024/01/02 07:07:59;;;;;;;17.70;3.62;;;;;;;4.87;100.00;99729.84;4948503;57;1138992;-80
2024/01/02 07:13:05;;;;;;;12.10;3.40;;;;;;;4.83;100.00;99729.67;4933070;57;1138899;-79
2024/01/02 07:18:11;;;;;;;14.63;3.70;;;;;;;4.78;100.00;99727.81;4946226;56;1138735;-79
2024/01/02 07:23:18;;;;;;;6.53;3.73;;;;;;;4.74;100.00;99728.11;4946460;55;1143496;-80
2024/01/02 07:28:24;;;;;;;11.70;3.85;;;;;;;4.68;100.00;99739.84;4940877;55;1136716;-77
2024/01/02 07:33:29;;;;;;;11.30;4.92;;;;;;;4.64;100.00;99738.36;4890253;57;1138496;-79
2024/01/02 07:38:35;;;;;;;7.03;3.80;;;;;;;4.63;100.00;99731.91;4942858;57;1138479;-78
2024/01/02 07:43:40;;;;;;;10.90;4.90;;;;;;;4.68;100.00;99718.05;4947147;57;1136442;-83
2024/01/02 07:48:46;;;;;;;29.23;15.20;;;;;;;4.63;100.00;99718.81;4941172;56;1138496;-79
2024/01/02 07:53:51;;;;;;;15.40;8.27;;;;;;;4.59;100.00;99718.17;4891191;56;1141181;-77
2024/01/02 07:58:57;;;;;;;32.27;18.13;;;;;;;4.59;100.00;99709.84;4975872;56;1138975;-81
2024/01/02 08:04:03;;;;;;;115.33;77.70;;;;;;;4.65;100.00;99695.52;4931308;57;1141220;-81
2024/01/02 08:09:08;;;;;;;77.93;38.90;;;;;;;4.69;100.00;99706.17;4892492;55;1143045;-81
2024/01/02 08:14:14;;;;;;;28.60;12.07;;;;;;;4.69;100.00;99705.33;4946319;57;1141125;-78
2024/01/02 08:19:20;;;;;;;164.07;78.47;;;;;;;4.75;100.00;99712.77;4945193;57;1141234;-81
2024/01/02 08:24:26;;;;;;;34.77;16.63;;;;;;;4.86;100.00;99708.51;4927056;57;1142996;-80
2024/01/02 08:29:31;;;;;;;180.97;44.57;;;;;;;4.92;100.00;99702.84;4912429;57;1139627;-79
2024/01/02 08:34:37;;;;;;;39.87;15.80;;;;;;;4.85;100.00;99697.66;4964025;57;1140927;-77
2024/01/02 08:39:42;;;;;;;27.10;9.07;;;;;;;4.88;100.00;99698.77;4943971;57;1140638;-78
2024/01/02 08:44:48;;;;;;;74.93;21.20;;;;;;;4.91;100.00;99696.39;4956258;57;1139198;-80
2024/01/02 08:49:54;;;;;;;52.05;16.62;;;;;;;4.85;100.00;99699.44;4941907;57;1140957;-83
2024/01/02 08:55:00;;;;;;;24.50;10.03;;;;;;;4.79;100.00;99702.45;4929698;56;1141008;-81
2024/01/02 09:00:07;;;;;;;49.57;16.13;;;;;;;4.69;100.00;99693.08;4926701;55;1140788;-81
2024/01/02 09:05:13;;;;;;;30.27;12.00;;;;;;;4.70;100.00;99688.20;4869358;57;1140746;-82
2024/01/02 09:10:19;;;;;;;111.90;42.50;;;;;;;4.72;100.00;99682.87;4864705;57;1260633;-81
2024/01/02 09:15:24;;;;;;;72.32;32.03;;;;;;;4.81;100.00;99680.46;4902633;57;1143399;-83
2024/01/02 09:20:30;;;;;;;39.10;17.92;;;;;;;4.89;100.00;99678.63;4979475;56;1141138;-81
2024/01/02 09:25:40;;;;;;;159.10;71.80;;;;;;;4.89;100.00;99679.93;4987316;55;1140780;-79
2024/01/02 09:30:46;;;;;;;20.27;7.80;;;;;;;4.89;100.00;99671.59;4964744;56;1143371;-82
2024/01/02 09:35:51;;;;;;;45.83;19.87;;;;;;;4.93;100.00;99659.14;4966182;56;1138751;-80
2024/01/02 09:41:13;;;;;;;53.97;25.17;;;;;;;4.89;100.00;99661.59;4985606;56;1140764;-79
2024/01/02 09:46:27;;;;;;;72.43;33.10;;;;;;;4.86;100.00;99656.58;5038242;55;1138645;-80
2024/01/02 09:52:19;;;;;;;20.95;10.50;;;;;;;4.85;100.00;99640.49;4997522;56;1141268;-78
2024/01/02 09:57:34;;;;;;;20.70;8.03;;;;;;;4.91;100.00;99621.72;4724194;58;1140918;-80
2024/01/02 10:03:02;;;;;;;20.23;8.63;;;;;;;4.95;100.00;99617.95;4740967;58;1138969;-78
2024/01/02 10:08:30;;;;;;;19.67;8.33;;;;;;;4.97;100.00;99623.09;4689044;60;1138798;-78
2024/01/02 10:13:59;;;;;;;23.62;9.00;;;;;;;5.00;100.00;99617.17;4596755;59;1138896;-81
2024/01/02 10:19:21;;;;;;;26.93;12.47;;;;;;;5.06;100.00;99608.88;4765770;58;1138740;-82
2024/01/02 10:24:52;;;;;;;24.43;14.35;;;;;;;5.05;100.00;99611.13;4772739;58;1141075;-81
2024/01/02 10:30:07;;;;;;;16.93;8.10;;;;;;;5.01;100.00;99607.53;4915347;56;1138978;-83
2024/01/02 10:35:17;;;;;;;39.97;20.33;;;;;;;4.96;100.00;99601.29;4871241;58;1138977;-85
2024/01/02 10:40:24;;;;;;;25.53;10.63;;;;;;;4.93;100.00;99596.25;4882814;55;1140922;-86
2024/01/02 10:45:37;;;;;;;17.37;9.18;;;;;;;4.96;100.00;99582.95;4992856;56;1140856;-84
2024/01/02 10:51:10;;;;;;;26.30;11.27;;;;;;;5.05;100.00;99570.50;4964930;56;1138540;-83
2024/01/02 10:56:42;;;;;;;30.73;10.10;;;;;;;5.09;100.00;99558.03;4913568;56;1141170;-81
2024/01/02 11:01:50;;;;;;;18.60;6.73;;;;;;;5.15;100.00;99537.95;4961020;56;1140561;-84
2024/01/02 11:07:03;;;;;;;15.80;5.87;;;;;;;5.19;100.00;99532.39;4977029;57;1139008;-85
2024/01/02 11:12:12;;;;;;;24.40;7.47;;;;;;;5.20;100.00;99518.31;4973911;56;1138707;-80
2024/01/02 11:17:20;;;;;;;24.67;8.03;;;;;;;5.16;100.00;99505.09;4953458;56;1139087;-86
2024/01/02 11:22:38;;;;;;;34.73;15.33;;;;;;;5.11;100.00;99498.02;4954681;56;1136588;-83
2024/01/02 11:27:46;;;;;;;23.60;6.43;;;;;;;5.15;100.00;99485.53;4938037;56;1139028;-86
2024/01/02 11:33:11;;;;;;;118.63;62.43;;;;;;;5.16;100.00;99466.24;4963049;56;1138523;-85
2024/01/02 11:38:21;;;;;;;29.90;10.13;;;;;;;5.20;100.00;99454.09;4919689;56;1143011;-88
2024/01/02 11:43:37;;;;;;;20.92;5.78;;;;;;;5.30;100.00;99452.50;4887551;57;1140665;-76
2024/01/02 11:48:53;;;;;;;26.43;10.00;;;;;;;5.36;100.00;99442.49;5013977;57;1138424;-76
2024/01/02 11:54:22;;;;;;;33.03;8.43;;;;;;;5.39;100.00;99438.34;4996308;56;1141032;-78
2024/01/02 11:59:45;;;;;;;49.85;30.60;;;;;;;5.43;100.00;99425.38;4892979;57;1136718;-79
2024/01/02 12:05:21;;;;;;;19.67;7.40;;;;;;;5.57;100.00;99412.08;4803948;58;1141049;-80
2024/01/02 12:10:30;;;;;;;29.90;9.23;;;;;;;5.72;100.00;99415.33;4732690;58;1138852;-79
2024/01/02 12:15:54;;;;;;;23.17;7.20;;;;;;;5.71;100.00;99411.88;4751132;59;1139554;-79
2024/01/02 12:21:03;;;;;;;24.53;7.43;;;;;;;5.64;100.00;99398.41;4828726;58;1138835;-79
2024/01/02 12:26:13;;;;;;;60.83;35.37;;;;;;;5.58;100.00;99392.77;4814303;58;1136860;-80
2024/01/02 12:31:35;;;;;;;23.97;11.47;;;;;;;5.53;100.00;99387.02;4730809;59;1140992;-79
2024/01/02 12:36:46;;;;;;;44.47;15.17;;;;;;;5.50;100.00;99393.83;4825329;56;1140810;-79
2024/01/02 12:41:55;;;;;;;26.60;11.33;;;;;;;5.50;100.00;99386.77;4699197;60;1141177;-79
2024/01/02 12:47:05;;;;;;;61.90;25.07;;;;;;;5.49;100.00;99375.95;4850415;58;1140994;-78
2024/01/02 12:52:15;;;;;;;20.70;6.93;;;;;;;5.46;100.00;99364.84;4812544;58;1140878;-80
2024/01/02 12:57:22;;;;;;;20.17;7.13;;;;;;;5.40;100.00;99358.73;4804748;58;1136795;-77
2024/01/02 13:02:34;;;;;;;35.75;11.43;;;;;;;5.34;100.00;99332.99;4755675;59;1136814;-79
2024/01/02 13:07:36;;;;;;;35.43;11.25;;;;;;;5.32;100.00;99325.72;4860561;57;1141066;-78
2024/01/02 13:12:44;;;;;;;29.23;11.13;;;;;;;5.36;100.00;99324.52;4864149;59;1140823;-80
2024/01/02 13:17:50;;;;;;;40.70;17.00;;;;;;;5.39;100.00;99315.95;4842691;57;1140532;-79
2024/01/02 13:22:57;;;;;;;36.63;13.07;;;;;;;5.42;100.00;99320.97;4861345;57;1141024;-79
2024/01/02 13:28:27;;;;;;;24.57;9.47;;;;;;;5.39;100.00;99315.95;4923703;56;1140754;-78
2024/01/02 13:33:40;;;;;;;25.37;11.57;;;;;;;5.35;100.00;99309.25;4894263;56;1136352;-79
2024/01/02 13:38:46;;;;;;;34.83;10.90;;;;;;;5.31;100.00;99302.59;4860507;56;1138595;-79
2024/01/02 13:43:52;;;;;;;28.67;10.43;;;;;;;5.24;100.00;99294.34;4951999;57;1140578;-79
2024/01/02 13:48:59;;;;;;;25.63;9.93;;;;;;;5.21;100.00;99273.60;4975691;57;1141024;-79
2024/01/02 13:54:07;;;;;;;28.20;9.10;;;;;;;5.21;100.00;99266.21;4965345;55;1139207;-79
2024/01/02 13:59:13;;;;;;;43.28;13.00;;;;;;;5.20;100.00;99264.06;4978881;55;1138902;-79
2024/01/02 14:04:24;;;;;;;38.23;16.07;;;;;;;5.15;100.00;99246.56;4943386;58;1140799;-79
2024/01/02 14:09:30;;;;;;;29.77;10.68;;;;;;;5.18;100.00;99242.88;4972855;56;1140776;-79
2024/01/02 14:15:03;;;;;;;31.15;10.50;;;;;;;5.15;100.00;99237.86;4974966;56;1141070;-79
2024/01/02 14:20:20;;;;;;;26.93;9.23;;;;;;;5.15;100.00;99241.80;4952631;57;1141138;-77
2024/01/02 14:25:38;;;;;;;49.83;17.35;;;;;;;5.15;100.00;99241.32;4839010;57;1138864;-79
2024/01/02 14:30:46;;;;;;;36.23;15.23;;;;;;;5.15;100.00;99233.94;4968845;57;1141065;-78
2024/01/02 14:36:17;;;;;;;31.10;9.93;;;;;;;5.12;100.00;99221.05;4952522;57;1140626;-78
2024/01/02 14:41:49;;;;;;;33.47;12.00;;;;;;;5.10;100.00;99221.17;4925123;56;1138623;-79
2024/01/02 14:47:29;;;;;;;43.37;14.43;;;;;;;5.11;100.00;99210.21;4950451;56;1140772;-78
2024/01/02 14:53:19;;;;;;;23.63;9.27;;;;;;;5.09;100.00;99212.11;4974594;54;1141046;-81
2024/01/02 14:58:29;;;;;;;30.57;10.75;;;;;;;5.07;100.00;99212.70;5038049;55;1138949;-81
2024/01/02 15:03:52;;;;;;;22.17;8.93;;;;;;;5.06;100.00;99207.09;5007336;56;1141056;-80
2024/01/02 15:09:16;;;;;;;31.43;10.03;;;;;;;5.04;100.00;99198.03;4902237;56;1138901;-79
2024/01/02 15:14:58;;;;;;;34.73;10.83;;;;;;;5.00;100.00;99183.52;4799230;58;1140647;-78
2024/01/02 15:20:35;;;;;;;23.53;8.13;;;;;;;5.00;100.00;99187.92;4819758;58;1140925;-78
2024/01/02 15:25:48;;;;;;;31.33;9.85;;;;;;;4.96;100.00;99174.22;4647974;60;1138634;-78
2024/01/02 15:30:58;;;;;;;30.35;10.00;;;;;;;4.92;100.00;99164.91;4738777;61;1136765;-79
2024/01/02 15:36:29;;;;;;;26.63;9.87;;;;;;;4.87;100.00;99156.59;4907431;57;1138897;-80
2024/01/02 15:41:56;;;;;;;27.45;10.10;;;;;;;4.87;100.00;99155.28;4969984;56;1139379;-78
2024/01/02 15:47:27;;;;;;;28.40;10.60;;;;;;;4.88;100.00;99149.09;4835274;57;1141112;-79
2024/01/02 15:52:49;;;;;;;84.05;43.98;;;;;;;4.85;100.00;99158.02;4791787;59;1140958;-78
2024/01/02 15:57:57;;;;;;;38.90;14.50;;;;;;;4.87;100.00;99144.80;4987237;57;1140823;-80
2024/01/02 16:03:46;;;;;;;34.63;13.40;;;;;;;4.90;100.00;99139.30;4961352;57;1140799;-80
2024/01/02 16:09:14;;;;;;;38.60;14.63;;;;;;;4.91;100.00;99136.57;4813071;58;1140765;-81
2024/01/02 16:14:43;;;;;;;64.23;24.20;;;;;;;4.93;100.00;99123.36;4835926;58;1140926;-79
2024/01/02 16:20:05;;;;;;;84.53;27.43;;;;;;;4.90;100.00;99115.25;4823312;57;1140980;-77
2024/01/02 16:25:38;;;;;;;50.23;21.30;;;;;;;4.90;100.00;99114.42;4790708;60;1141163;-81
2024/01/02 16:31:00;;;;;;;35.37;14.23;;;;;;;4.90;100.00;99103.94;4820540;58;1141277;-80
2024/01/02 16:36:10;;;;;;;39.73;14.20;;;;;;;4.88;100.00;99092.30;4865961;57;1141090;-78
2024/01/02 16:41:23;;;;;;;34.10;13.03;;;;;;;4.90;100.00;99085.13;4803742;57;1140957;-80
2024/01/02 16:46:30;;;;;;;35.90;12.60;;;;;;;4.88;100.00;99080.98;4881754;57;1140907;-80
2024/01/02 16:51:36;;;;;;;36.03;13.32;;;;;;;4.88;100.00;99074.44;4922611;57;1141063;-79
2024/01/02 16:56:43;;;;;;;29.30;12.20;;;;;;;4.86;100.00;99060.62;4962299;57;1140761;-79
2024/01/02 17:01:49;;;;;;;29.13;11.60;;;;;;;4.86;100.00;99052.76;4928659;56;1140874;-81
2024/01/02 17:06:55;;;;;;;27.67;11.93;;;;;;;4.85;100.00;99058.47;4906338;56;1141006;-78
2024/01/02 17:12:01;;;;;;;32.03;11.83;;;;;;;4.85;100.00;99051.92;4861400;57;1140971;-81
2024/01/02 17:17:08;;;;;;;86.47;27.50;;;;;;;4.84;100.00;99041.56;4849447;59;1140782;-79
2024/01/02 17:22:14;;;;;;;36.17;13.17;;;;;;;4.83;100.00;99030.25;4837672;58;1141780;-80
2024/01/02 17:27:20;;;;;;;29.27;11.05;;;;;;;4.84;100.00;99038.47;4928895;57;1141243;-80
2024/01/02 17:32:38;;;;;;;33.24;13.28;;;;;;;4.82;100.00;99031.67;5013160;56;1140849;-81
2024/01/02 17:37:43;;;;;;;28.25;10.23;;;;;;;4.82;100.00;99029.05;4885810;58;1140882;-78
2024/01/02 17:42:50;;;;;;;28.00;10.30;;;;;;;4.80;100.00;99011.31;4939632;57;1141621;-82
2024/01/02 17:48:08;;;;;;;23.97;10.90;;;;;;;4.81;100.00;99003.34;4803954;57;1140975;-82
2024/01/02 17:53:14;;;;;;;37.87;12.77;;;;;;;4.83;100.00;98992.27;4763014;59;1140971;-82
2024/01/02 17:58:27;;;;;;;38.27;12.83;;;;;;;4.82;100.00;98985.36;4773593;58;1141131;-81
2024/01/02 18:04:03;;;;;;;41.23;12.55;;;;;;;4.82;100.00;98977.98;4964780;57;1140763;-80
2024/01/02 18:09:33;;;;;;;26.60;10.37;;;;;;;4.79;100.00;98964.64;4856657;58;1140908;-79
2024/01/02 18:15:04;;;;;;;32.17;12.65;;;;;;;4.76;100.00;98946.55;4819000;58;1140916;-81
2024/01/02 18:20:14;;;;;;;33.80;11.87;;;;;;;4.77;100.00;98930.36;4745318;59;1140704;-81
2024/01/02 18:25:42;;;;;;;28.53;11.93;;;;;;;4.77;100.00;98935.59;4863323;57;1141257;-81
2024/01/02 18:31:20;;;;;;;30.60;12.53;;;;;;;4.74;100.00;98926.67;4795610;59;1141028;-81
2024/01/02 18:36:55;;;;;;;40.70;13.47;;;;;;;4.72;100.00;98924.20;4809966;59;1141014;-80
2024/01/02 18:42:08;;;;;;;28.47;12.03;;;;;;;4.69;100.00;98908.72;4785634;57;1140936;-79
2024/01/02 18:47:21;;;;;;;59.35;22.07;;;;;;;4.69;100.00;98902.65;4827272;57;1140873;-79
2024/01/02 18:52:34;;;;;;;49.15;18.42;;;;;;;4.69;100.00;98898.24;4983979;56;1140845;-81
2024/01/02 18:57:41;;;;;;;31.68;14.20;;;;;;;4.68;100.00;98893.95;4771288;59;1140902;-79
2024/01/02 19:02:53;;;;;;;32.90;13.53;;;;;;;4.69;100.00;98873.84;4847146;57;1140652;-79
2024/01/02 19:08:11;;;;;;;45.70;18.17;;;;;;;4.72;100.00;98860.52;4867560;58;1141120;-79
2024/01/02 19:13:18;;;;;;;27.57;12.67;;;;;;;4.72;100.00;98860.52;4877883;57;1141176;-79
2024/01/02 19:18:28;;;;;;;23.10;10.63;;;;;;;4.71;100.00;98851.83;4854879;57;1141062;-80
2024/01/02 19:23:39;;;;;;;33.47;11.57;;;;;;;4.67;100.00;98848.25;4949866;57;1149996;-79
2024/01/02 19:28:46;;;;;;;30.40;11.15;;;;;;;4.67;100.00;98847.78;4935023;57;1140920;-81
2024/01/02 19:33:55;;;;;;;29.13;10.67;;;;;;;4.68;100.00;98851.23;4953261;57;1141026;-79
2024/01/02 19:39:00;;;;;;;37.37;13.70;;;;;;;4.68;100.00;98845.99;4914136;57;1141029;-83
2024/01/02 19:44:08;;;;;;;24.73;9.67;;;;;;;4.68;100.00;98836.83;4871426;57;1140821;-81
2024/01/02 19:49:13;;;;;;;30.83;11.57;;;;;;;4.65;100.00;98814.33;4883850;58;1139153;-79
2024/01/02 19:54:18;;;;;;;28.10;12.07;;;;;;;4.65;100.00;98805.64;4928495;57;1141085;-80
2024/01/02 19:59:24;;;;;;;26.33;11.70;;;;;;;4.67;100.00;98799.81;4960344;57;1140854;-79
2024/01/02 20:04:34;;;;;;;31.07;12.77;;;;;;;4.64;100.00;98791.72;4957694;57;1140968;-77
2024/01/02 20:09:42;;;;;;;29.92;11.93;;;;;;;4.64;100.00;98781.25;4923806;57;1141380;-79
2024/01/02 20:14:52;;;;;;;29.33;11.50;;;;;;;4.65;100.00;98793.39;4962012;56;1140862;-85
2024/01/02 20:19:58;;;;;;;34.53;12.70;;;;;;;4.64;100.00;98785.17;4893106;57;1140893;-81
2024/01/02 20:25:05;;;;;;;32.87;11.93;;;;;;;4.63;100.00;98776.13;4938793;57;1141699;-80
2024/01/02 20:30:13;;;;;;;22.97;9.90;;;;;;;4.64;100.00;98779.94;5007892;56;1141098;-81
2024/01/02 20:35:31;;;;;;;35.37;14.17;;;;;;;4.63;100.00;98767.80;4951692;57;1138765;-86
2024/01/02 20:40:39;;;;;;;41.45;17.07;;;;;;;4.62;100.00;98754.83;4975823;57;1141019;-78
2024/01/02 20:45:45;;;;;;;33.97;13.23;;;;;;;4.62;100.00;98749.59;4980110;57;1141169;-80
2024/01/02 20:50:59;;;;;;;43.27;16.40;;;;;;;4.59;100.00;98741.03;4921513;57;1141038;-80
2024/01/02 20:56:09;;;;;;;31.90;11.13;;;;;;;4.60;100.00;98734.01;4965585;56;1140796;-78
2024/01/02 21:01:15;;;;;;;44.47;16.17;;;;;;;4.55;100.00;98728.34;4949329;58;1141131;-78
2024/01/02 21:06:28;;;;;;;23.97;10.93;;;;;;;4.57;100.00;98716.79;4946819;57;1140815;-79
2024/01/02 21:11:34;;;;;;;20.43;8.88;;;;;;;4.56;100.00;98703.82;4953200;56;1140726;-79
2024/01/02 21:16:39;;;;;;;28.00;10.13;;;;;;;4.56;100.00;98698.59;4966701;56;1138517;-77
2024/01/02 21:21:45;;;;;;;22.20;11.20;;;;;;;4.53;100.00;98698.83;5001285;56;1140983;-76
2024/01/02 21:26:51;;;;;;;23.83;10.13;;;;;;;4.50;100.00;98695.98;4956944;56;1140975;-77
2024/01/02 21:31:57;;;;;;;34.43;13.37;;;;;;;4.48;100.00;98678.25;4962711;56;1140792;-79
2024/01/02 21:37:03;;;;;;;21.17;9.57;;;;;;;4.47;100.00;98663.98;4971813;56;1140938;-80
2024/01/02 21:42:09;;;;;;;22.30;8.87;;;;;;;4.47;100.00;98653.51;4962252;56;1138967;-76
2024/01/02 21:47:15;;;;;;;18.13;9.10;;;;;;;4.46;100.00;98640.06;4967489;56;1138884;-75
2024/01/02 21:52:53;;;;;;;17.55;9.08;;;;;;;4.43;100.00;98633.80;4967851;57;1138900;-77
2024/01/02 21:58:03;;;;;;;28.97;13.20;;;;;;;4.40;100.00;98623.10;4956436;57;1138710;-77
2024/01/02 22:03:19;;;;;;;24.10;9.90;;;;;;;4.39;100.00;98615.38;4897727;57;1140870;-77
2024/01/02 22:08:28;;;;;;;20.23;9.33;;;;;;;4.35;100.00;98617.89;4924927;57;1138989;-75
2024/01/02 22:13:51;;;;;;;17.10;8.43;;;;;;;4.32;100.00;98601.13;4928620;57;1138948;-78
2024/01/02 22:19:20;;;;;;;16.60;8.73;;;;;;;4.29;100.00;98598.27;4955782;56;1138588;-79
2024/01/02 22:24:51;;;;;;;23.30;10.73;;;;;;;4.28;100.00;98587.97;4924948;57;1139019;-79
2024/01/02 22:29:57;;;;;;;20.40;9.47;;;;;;;4.29;100.00;98589.59;4986024;57;1140771;-78
2024/01/02 22:35:07;;;;;;;20.23;9.27;;;;;;;4.27;100.00;98579.76;5003766;57;1138988;-79
2024/01/02 22:40:17;;;;;;;28.03;10.07;;;;;;;4.28;100.00;98574.88;4925816;56;1138710;-79
2024/01/02 22:45:24;;;;;;;34.03;13.15;;;;;;;4.32;100.00;98564.01;4935252;57;1141062;-77
2024/01/02 22:50:30;;;;;;;30.23;10.80;;;;;;;4.30;100.00;98553.31;4971980;57;1141049;-79
2024/01/02 22:55:35;;;;;;;32.07;11.03;;;;;;;4.26;100.00;98542.77;4953797;57;1140849;-77
2024/01/02 23:00:41;;;;;;;20.43;9.35;;;;;;;4.29;100.00;98529.41;4966920;57;1140718;-77
2024/01/02 23:05:47;;;;;;;31.73;16.10;;;;;;;4.28;100.00;98516.00;4956047;57;1138747;-77
2024/01/02 23:10:53;;;;;;;24.43;11.50;;;;;;;4.28;100.00;98505.54;4959761;57;1141477;-77
2024/01/02 23:16:13;;;;;;;26.47;10.90;;;;;;;4.25;100.00;98504.00;4899208;57;1141012;-77
2024/01/02 23:21:19;;;;;;;27.47;12.70;;;;;;;4.23;100.00;98491.05;4932146;57;1140828;-77
2024/01/02 23:26:27;;;;;;;25.15;11.85;;;;;;;4.20;100.00;98481.31;4973178;57;1141143;-76
2024/01/02 23:31:37;;;;;;;24.30;12.20;;;;;;;4.20;100.00;98475.59;4990108;56;1140838;-77